Time;durP1;ratioP1;P1;durP2;ratioP2;P2;SDS_P1;SDS_P2;PMS_P1;PMS_P2;Temp;Humidity;BMP_temperature;BMP_pressure;BME280_temperature;BME280_humidity;BME280_pressure;Samples;Min_cycle;Max_cycle;Signal;HPM_P1;HPM_P2
2023/04/14 00:00:41;;;;;;;5.68;1.00;;;9.20;68.60;;;;;;2552508;54;20943;-70
2023/04/14 00:03:09;;;;;;;4.20;0.95;;;9.20;68.60;;;;;;2311714;55;20967;-71
2023/04/14 00:05:35;;;;;;;3.47;0.98;;;9.20;68.60;;;;;;2312633;55;21361;-71
2023/04/14 00:08:04;;;;;;;2.95;0.90;;;9.10;68.60;;;;;;2311755;55;20955;-71
2023/04/14 00:10:33;;;;;;;4.90;0.90;;;9.10;68.60;;;;;;2547920;54;21006;-69
2023/04/14 00:13:00;;;;;;;2.97;0.80;;;9.00;68.60;;;;;;2307282;55;21074;-69
2023/04/14 00:15:27;;;;;;;3.72;1.02;;;9.00;68.70;;;;;;2312755;54;20953;-68
2023/04/14 00:17:53;;;;;;;3.35;0.90;;;9.00;68.70;;;;;;2528020;54;21010;-69
2023/04/14 00:20:20;;;;;;;3.00;1.15;;;9.00;68.80;;;;;;2547479;53;22648;-70
2023/04/14 00:22:48;;;;;;;2.20;0.80;;;9.00;68.90;;;;;;2307443;54;21377;-70
2023/04/14 00:25:14;;;;;;;2.60;0.90;;;8.90;68.90;;;;;;2547496;53;22045;-68
2023/04/14 00:27:41;;;;;;;4.93;0.82;;;8.90;68.90;;;;;;2308212;54;20939;-69
2023/04/14 00:30:08;;;;;;;3.35;0.98;;;8.90;68.90;;;;;;2306787;55;21133;-70
2023/04/14 00:32:38;;;;;;;3.85;0.80;;;8.90;68.90;;;;;;2546533;54;20967;-70
2023/04/14 00:35:05;;;;;;;3.33;0.80;;;8.90;68.90;;;;;;2547102;53;21071;-70
2023/04/14 00:37:31;;;;;;;2.25;0.70;;;8.80;68.80;;;;;;2307011;54;21460;-69
2023/04/14 00:39:57;;;;;;;5.35;0.88;;;8.80;68.90;;;;;;2545778;54;21001;-68
2023/04/14 00:42:24;;;;;;;3.55;1.00;;;8.80;69.00;;;;;;2550661;53;21022;-70
2023/04/14 00:44:50;;;;;;;3.87;0.98;;;8.80;69.00;;;;;;2311567;55;21483;-69
2023/04/14 00:47:17;;;;;;;3.33;0.85;;;8.80;69.00;;;;;;2311844;54;20947;-70
2023/04/14 00:49:44;;;;;;;4.93;1.00;;;8.70;68.90;;;;;;2312641;54;21006;-69
2023/04/14 00:52:13;;;;;;;3.30;0.90;;;8.70;69.00;;;;;;2308724;54;20967;-71
2023/04/14 00:54:43;;;;;;;3.72;0.85;;;8.70;69.00;;;;;;2552281;54;20951;-67
2023/04/14 00:57:09;;;;;;;4.37;1.00;;;8.70;69.10;;;;;;2551449;53;21483;-69
2023/04/14 00:59:36;;;;;;;3.33;0.77;;;8.70;69.10;;;;;;2310309;54;20993;-71
2023/04/14 01:02:02;;;;;;;2.17;0.82;;;8.70;69.20;;;;;;2311636;55;20939;-69
2023/04/14 01:04:28;;;;;;;5.82;1.35;;;8.60;69.20;;;;;;2312448;55;20971;-69
2023/04/14 01:07:00;;;;;;;2.75;0.82;;;8.70;69.30;;;;;;2311014;55;20987;-69
2023/04/14 01:09:26;;;;;;;3.15;0.80;;;8.70;69.30;;;;;;2311892;55;20959;-71
2023/04/14 01:13:45;;;;;;;4.57;1.20;;;8.60;69.20;;;;;;2552481;54;21508;-70
2023/04/14 01:16:29;;;;;;;2.37;1.10;;;8.60;68.90;;;;;;2552179;53;21519;-69
2023/04/14 01:26:45;;;;;;;2.95;0.88;;;8.60;69.20;;;;;;2551707;54;21058;-70
2023/04/14 01:29:40;;;;;;;1.92;0.52;;;8.60;68.20;;;;;;2551020;53;21933;-69
2023/04/14 01:32:09;;;;;;;1.87;0.57;;;8.60;68.90;;;;;;2551656;53;21081;-71
2023/04/14 01:34:57;;;;;;;4.82;0.98;;;8.60;69.30;;;;;;2549871;53;21852;-69
2023/04/14 01:37:34;;;;;;;2.35;1.00;;;8.50;68.90;;;;;;2290338;54;20975;-70
2023/04/14 01:40:04;;;;;;;3.58;0.90;;;8.50;69.20;;;;;;2311929;55;21431;-69
2023/04/14 01:42:35;;;;;;;3.33;1.25;;;8.50;69.40;;;;;;2312192;55;21015;-68
2023/04/14 01:45:22;;;;;;;3.08;0.82;;;8.50;69.30;;;;;;2551353;53;20963;-67
2023/04/14 01:47:48;;;;;;;3.08;0.90;;;8.40;68.80;;;;;;2311948;55;20971;-68
2023/04/14 01:50:14;;;;;;;4.20;1.20;;;8.40;69.30;;;;;;2551638;53;20939;-69
2023/04/14 01:52:42;;;;;;;2.90;1.08;;;8.40;69.40;;;;;;2551260;53;20966;-69
2023/04/14 01:55:08;;;;;;;4.53;1.37;;;8.40;69.40;;;;;;2311781;55;21416;-71
2023/04/14 01:57:35;;;;;;;3.75;1.10;;;8.40;69.40;;;;;;2552154;54;21009;-70
2023/04/14 02:00:03;;;;;;;3.10;1.00;;;8.40;69.40;;;;;;2551634;54;20931;-68
2023/04/14 02:02:30;;;;;;;2.47;0.73;;;8.40;69.40;;;;;;2552401;54;21441;-68
2023/04/14 02:04:57;;;;;;;2.35;0.70;;;8.40;69.40;;;;;;2551803;54;20943;-70
2023/04/14 02:07:24;;;;;;;4.72;0.95;;;8.40;69.40;;;;;;2311249;55;21007;-71
2023/04/14 02:09:50;;;;;;;5.12;1.45;;;8.30;69.40;;;;;;2311685;54;21043;-70
2023/04/14 02:12:17;;;;;;;2.42;0.80;;;8.30;69.40;;;;;;2312157;55;20924;-68
2023/04/14 02:14:44;;;;;;;3.28;0.90;;;8.30;69.40;;;;;;2312200;55;20941;-70
2023/04/14 02:17:10;;;;;;;3.90;1.10;;;8.30;69.40;;;;;;2311984;55;20986;-70
2023/04/14 02:19:36;;;;;;;2.78;0.90;;;8.30;69.40;;;;;;2312070;55;21030;-68
2023/04/14 02:22:02;;;;;;;2.22;0.70;;;8.30;69.40;;;;;;2311360;55;21042;-71
2023/04/14 02:24:29;;;;;;;2.75;0.95;;;8.30;69.40;;;;;;2551984;53;20999;-71
2023/04/14 02:26:58;;;;;;;1.50;0.60;;;8.30;69.30;;;;;;2311803;55;21409;-70
2023/04/14 02:29:24;;;;;;;1.75;0.90;;;8.30;69.10;;;;;;2312450;55;21444;-68
2023/04/14 02:32:03;;;;;;;3.25;0.70;;;8.20;68.90;;;;;;2551933;53;21436;-68
2023/04/14 02:34:32;;;;;;;1.70;0.60;;;8.30;68.90;;;;;;2312210;55;20963;-71
2023/04/14 02:37:01;;;;;;;4.30;1.10;;;8.20;68.90;;;;;;2311337;54;20997;-69
2023/04/14 02:39:36;;;;;;;4.82;0.98;;;8.20;68.90;;;;;;2548282;53;21444;-70
2023/04/14 02:42:06;;;;;;;3.12;0.70;;;8.10;68.80;;;;;;2310612;54;21046;-71
2023/04/14 02:44:36;;;;;;;4.55;1.20;;;8.10;68.90;;;;;;2311753;55;21483;-69
2023/04/14 02:47:09;;;;;;;4.07;1.00;;;8.10;69.10;;;;;;2551797;54;21046;-70
2023/04/14 02:49:46;;;;;;;5.07;1.40;;;8.10;69.20;;;;;;2547142;53;21027;-68
2023/04/14 02:52:14;;;;;;;2.47;0.88;;;8.10;69.20;;;;;;2312273;54;20971;-68
2023/04/14 02:54:41;;;;;;;4.87;1.27;;;8.10;69.60;;;;;;2312956;55;20998;-69
2023/04/14 02:57:08;;;;;;;4.62;1.00;;;8.10;69.70;;;;;;2552142;53;20971;-69
2023/04/14 02:59:34;;;;;;;4.00;1.00;;;8.00;69.70;;;;;;2552277;54;20986;-68
2023/04/14 03:02:04;;;;;;;2.90;1.05;;;8.00;69.80;;;;;;2312057;55;21861;-68
2023/04/14 03:04:32;;;;;;;3.03;0.82;;;8.00;69.80;;;;;;2552058;53;20982;-71
2023/04/14 03:07:00;;;;;;;4.72;0.80;;;8.10;69.90;;;;;;2547668;54;20901;-69
2023/04/14 03:09:26;;;;;;;4.03;0.98;;;8.10;70.00;;;;;;2310879;54;21018;-67
2023/04/14 03:11:53;;;;;;;3.70;0.73;;;8.10;70.00;;;;;;2315026;54;21523;-70
2023/04/14 03:14:20;;;;;;;3.90;1.00;;;8.10;69.90;;;;;;2547630;53;21000;-69
2023/04/14 03:16:47;;;;;;;2.75;0.60;;;8.10;69.80;;;;;;2552179;54;20974;-68
2023/04/14 03:19:13;;;;;;;2.65;0.80;;;8.10;69.60;;;;;;2312236;54;20932;-68
2023/04/14 03:21:39;;;;;;;2.95;0.70;;;8.10;69.30;;;;;;2294001;54;20992;-70
2023/04/14 03:24:06;;;;;;;3.95;0.70;;;8.00;69.10;;;;;;2545635;54;20967;-70
2023/04/14 03:26:35;;;;;;;2.45;0.90;;;8.00;69.00;;;;;;2552155;54;20995;-69
2023/04/14 03:29:01;;;;;;;2.25;1.10;;;8.00;68.90;;;;;;2551390;54;20931;-71
2023/04/14 03:31:32;;;;;;;3.67;0.80;;;7.90;68.70;;;;;;2551765;53;21725;-70
2023/04/14 03:34:00;;;;;;;4.10;0.80;;;7.90;68.40;;;;;;2551316;54;20956;-70
2023/04/14 03:36:27;;;;;;;2.10;0.80;;;7.90;68.40;;;;;;2548330;54;21437;-70
2023/04/14 03:38:54;;;;;;;2.85;0.70;;;7.80;68.40;;;;;;2550465;54;21011;-69
2023/04/14 03:41:22;;;;;;;6.45;1.10;;;7.80;68.40;;;;;;2552025;53;20964;-68
2023/04/14 03:43:53;;;;;;;3.50;0.80;;;7.80;68.40;;;;;;2312245;55;20958;-70
2023/04/14 03:46:20;;;;;;;4.03;0.90;;;7.70;68.30;;;;;;2312214;54;20931;-70
2023/04/14 03:48:48;;;;;;;2.35;0.80;;;7.70;68.30;;;;;;2312392;55;21003;-70
2023/04/14 03:51:14;;;;;;;4.47;0.55;;;7.70;68.20;;;;;;2551546;54;21954;-69
2023/04/14 03:53:41;;;;;;;1.67;0.70;;;7.60;68.20;;;;;;2312472;55;20947;-69
2023/04/14 03:56:07;;;;;;;1.83;0.80;;;7.60;68.20;;;;;;2551890;53;21038;-69
2023/04/14 03:58:34;;;;;;;1.90;0.60;;;7.60;68.10;;;;;;2552271;53;20947;-71
2023/04/14 04:01:00;;;;;;;2.78;1.00;;;7.50;68.00;;;;;;2311366;54;20955;-68
2023/04/14 04:03:27;;;;;;;2.97;1.00;;;7.50;68.10;;;;;;2552112;54;20990;-68
2023/04/14 04:05:53;;;;;;;2.97;0.98;;;7.40;68.80;;;;;;2311072;54;20961;-70
2023/04/14 04:08:19;;;;;;;2.03;0.70;;;7.40;68.10;;;;;;2551676;54;21499;-71
2023/04/14 04:10:46;;;;;;;1.92;0.70;;;7.30;68.00;;;;;;2311910;54;21086;-69
2023/04/14 04:13:14;;;;;;;3.87;1.10;;;7.30;68.00;;;;;;2311759;55;21500;-69
2023/04/14 04:15:41;;;;;;;3.75;0.98;;;7.20;67.80;;;;;;2311824;55;21026;-67
2023/04/14 04:18:07;;;;;;;6.53;1.00;;;7.20;67.90;;;;;;2311800;55;21003;-69
2023/04/14 04:20:35;;;;;;;4.50;1.10;;;7.20;68.10;;;;;;2552371;53;22073;-70
2023/04/14 04:23:01;;;;;;;3.05;1.30;;;7.20;68.30;;;;;;2310648;54;21464;-71
2023/04/14 04:25:27;;;;;;;3.90;1.33;;;7.10;68.20;;;;;;2312348;55;21793;-70
2023/04/14 04:27:54;;;;;;;4.40;1.30;;;7.10;68.20;;;;;;2552807;54;20971;-69
2023/04/14 04:30:20;;;;;;;4.90;1.35;;;7.10;68.30;;;;;;2552193;53;21022;-69
2023/04/14 04:32:46;;;;;;;3.65;1.40;;;7.10;68.30;;;;;;2311598;55;20963;-69
2023/04/14 04:35:13;;;;;;;3.15;1.30;;;7.00;68.30;;;;;;2311592;54;21761;-68
2023/04/14 04:37:39;;;;;;;4.47;1.10;;;7.00;68.30;;;;;;2312342;55;20927;-71
2023/04/14 04:40:06;;;;;;;2.80;0.90;;;7.00;68.50;;;;;;2552255;54;21033;-69
2023/04/14 04:42:33;;;;;;;2.75;0.93;;;7.00;68.50;;;;;;2312504;54;21288;-70
2023/04/14 04:44:59;;;;;;;3.42;0.90;;;6.90;68.50;;;;;;2551488;53;20967;-69
2023/04/14 04:47:25;;;;;;;3.12;1.00;;;6.90;68.70;;;;;;2311645;55;20963;-68
2023/04/14 04:49:54;;;;;;;3.83;1.05;;;6.90;68.80;;;;;;2312227;54;20954;-68
2023/04/14 04:52:21;;;;;;;2.40;0.98;;;6.90;68.70;;;;;;2552447;53;20955;-70
2023/04/14 04:54:51;;;;;;;3.78;1.30;;;6.90;68.70;;;;;;2312082;55;21542;-68
2023/04/14 04:57:20;;;;;;;3.90;0.88;;;6.80;68.70;;;;;;2551720;54;21047;-68
2023/04/14 04:59:46;;;;;;;4.00;0.80;;;6.80;68.70;;;;;;2552491;53;21014;-69
2023/04/14 05:02:14;;;;;;;4.15;1.10;;;6.80;68.70;;;;;;2311649;55;21098;-69
2023/04/14 05:04:40;;;;;;;3.12;1.17;;;6.80;68.70;;;;;;2314388;54;21547;-68
2023/04/14 05:07:06;;;;;;;4.68;0.93;;;6.80;68.70;;;;;;2547790;53;20982;-68
2023/04/14 05:09:32;;;;;;;4.10;1.15;;;6.80;68.70;;;;;;2552274;53;21638;-68
2023/04/14 05:11:59;;;;;;;6.30;1.27;;;6.70;68.60;;;;;;2552197;54;21293;-70
2023/04/14 05:14:28;;;;;;;5.32;1.58;;;6.70;68.70;;;;;;2311787;55;21062;-68
2023/04/14 05:16:55;;;;;;;3.78;1.17;;;6.70;68.80;;;;;;2552614;54;21038;-70
2023/04/14 05:19:22;;;;;;;4.30;1.37;;;6.70;68.80;;;;;;2311937;55;21844;-71
2023/04/14 05:21:48;;;;;;;3.70;1.02;;;6.70;68.80;;;;;;2315564;55;21444;-69
2023/04/14 05:24:14;;;;;;;3.30;1.35;;;6.70;68.80;;;;;;2307169;54;21011;-68
2023/04/14 05:26:40;;;;;;;4.78;1.40;;;6.70;68.90;;;;;;2552578;53;20975;-71
2023/04/14 05:29:11;;;;;;;4.37;1.45;;;6.70;68.90;;;;;;2551656;54;21532;-68
2023/04/14 05:31:38;;;;;;;5.45;1.55;;;6.70;68.90;;;;;;2552291;54;20967;-69
2023/04/14 05:34:04;;;;;;;4.12;1.40;;;6.60;68.80;;;;;;2311512;54;21015;-70
2023/04/14 05:36:31;;;;;;;3.67;1.30;;;6.60;68.80;;;;;;2311729;54;21838;-70
2023/04/14 05:39:07;;;;;;;3.28;1.33;;;6.60;68.90;;;;;;2552096;53;20923;-71
2023/04/14 05:41:33;;;;;;;3.78;1.20;;;6.60;68.90;;;;;;2311827;55;21046;-70
2023/04/14 05:44:02;;;;;;;3.83;1.33;;;6.60;68.90;;;;;;2311856;55;20939;-71
2023/04/14 05:46:28;;;;;;;3.62;1.50;;;6.60;69.00;;;;;;2552096;53;21590;-70
2023/04/14 05:48:57;;;;;;;5.55;1.83;;;6.60;69.10;;;;;;2552591;54;20998;-70
2023/04/14 05:51:26;;;;;;;5.97;1.52;;;6.60;69.20;;;;;;2311614;55;20959;-71
2023/04/14 05:53:54;;;;;;;4.80;1.65;;;6.60;69.30;;;;;;2552694;54;21011;-70
2023/04/14 05:56:20;;;;;;;5.37;1.58;;;6.60;69.40;;;;;;2551574;54;20954;-68
2023/04/14 05:58:47;;;;;;;3.30;1.48;;;6.60;70.10;;;;;;2551719;54;21810;-71
2023/04/14 06:01:13;;;;;;;4.87;1.62;;;6.60;69.50;;;;;;2551240;54;21501;-68
2023/04/14 06:03:41;;;;;;;3.87;1.70;;;6.60;69.60;;;;;;2311978;54;21118;-69
2023/04/14 06:06:08;;;;;;;4.45;2.08;;;6.60;69.60;;;;;;2288968;55;21401;-70
2023/04/14 06:08:34;;;;;;;5.70;2.00;;;6.60;69.80;;;;;;2312294;55;20951;-70
2023/04/14 06:11:00;;;;;;;8.68;2.08;;;6.70;70.00;;;;;;2312349;54;21024;-69
2023/04/14 06:13:27;;;;;;;5.90;1.95;;;6.70;70.10;;;;;;2548956;54;21831;-70
2023/04/14 06:15:58;;;;;;;3.15;1.45;;;6.70;70.20;;;;;;2550790;54;20959;-73
2023/04/14 06:18:24;;;;;;;2.85;1.25;;;6.70;70.30;;;;;;2552340;53;20986;-69
2023/04/14 06:20:50;;;;;;;3.58;1.20;;;6.80;70.50;;;;;;2313221;54;21528;-70
2023/04/14 06:23:21;;;;;;;2.47;1.08;;;6.80;70.70;;;;;;2552595;54;20986;-69
2023/04/14 06:25:48;;;;;;;3.70;1.30;;;6.90;70.90;;;;;;2314157;54;20925;-68
2023/04/14 06:28:15;;;;;;;2.60;1.10;;;6.90;71.10;;;;;;2312917;54;21836;-71
2023/04/14 06:30:41;;;;;;;3.62;1.52;;;7.00;71.40;;;;;;2314239;54;21031;-70
2023/04/14 06:33:08;;;;;;;7.90;1.70;;;7.00;71.50;;;;;;2311754;54;20951;-69
2023/04/14 06:35:36;;;;;;;4.93;1.90;;;7.10;71.70;;;;;;2551418;53;20965;-70
2023/04/14 06:38:02;;;;;;;3.75;1.60;;;7.10;71.80;;;;;;2547290;53;20991;-69
2023/04/14 06:40:28;;;;;;;6.22;2.42;;;7.20;72.00;;;;;;2552230;53;21003;-70
2023/04/14 06:42:55;;;;;;;7.25;3.47;;;7.30;72.10;;;;;;2552623;54;20966;-68
2023/04/14 06:45:21;;;;;;;6.97;3.67;;;7.30;72.20;;;;;;2551656;54;21491;-70
2023/04/14 06:47:47;;;;;;;9.55;3.45;;;7.40;72.40;;;;;;2312000;55;20955;-68
2023/04/14 06:50:19;;;;;;;7.37;3.17;;;7.50;72.60;;;;;;2311110;54;21043;-71
2023/04/14 06:52:45;;;;;;;5.70;2.75;;;7.60;72.90;;;;;;2311351;54;20947;-69
2023/04/14 06:55:20;;;;;;;7.87;3.55;;;7.70;73.40;;;;;;2551345;53;21358;-70
2023/04/14 06:57:46;;;;;;;7.85;2.87;;;7.80;73.70;;;;;;2312191;55;21812;-69
2023/04/14 07:00:13;;;;;;;6.40;2.45;;;7.80;74.00;;;;;;2311998;55;20967;-71
2023/04/14 07:02:39;;;;;;;7.40;3.00;;;8.00;74.50;;;;;;2552411;54;21043;-70
2023/04/14 07:05:06;;;;;;;11.00;3.33;;;8.10;75.20;;;;;;2312011;55;21015;-70
2023/04/14 07:07:36;;;;;;;6.15;2.87;;;8.30;76.20;;;;;;2313961;54;21010;-72
2023/04/14 07:10:03;;;;;;;8.27;3.10;;;8.50;77.00;;;;;;2301188;54;20979;-69
2023/04/14 07:12:32;;;;;;;5.15;2.40;;;8.70;77.50;;;;;;2302407;54;20967;-69
2023/04/14 07:14:58;;;;;;;5.82;2.28;;;8.80;77.50;;;;;;2551637;54;21472;-69
2023/04/14 07:17:25;;;;;;;7.20;2.60;;;9.00;77.40;;;;;;2551504;53;20995;-71
2023/04/14 07:20:04;;;;;;;4.78;2.08;;;9.20;77.40;;;;;;2532252;53;20986;-70
2023/04/14 07:22:32;;;;;;;4.18;2.08;;;9.40;77.50;;;;;;2546503;54;21616;-70
2023/04/14 07:24:58;;;;;;;5.97;2.20;;;9.50;77.50;;;;;;2296980;54;21012;-70
2023/04/14 07:27:27;;;;;;;4.97;1.98;;;9.70;77.60;;;;;;2538876;53;21475;-73
2023/04/14 07:29:53;;;;;;;6.43;1.40;;;9.90;77.80;;;;;;2304623;54;21356;-72
2023/04/14 07:32:20;;;;;;;5.70;1.70;;;10.10;76.80;;;;;;2550706;54;21023;-72
2023/04/14 07:34:47;;;;;;;5.30;1.48;;;10.30;77.00;;;;;;2307670;54;20954;-71
2023/04/14 07:37:15;;;;;;;6.03;1.48;;;10.40;76.70;;;;;;2549725;54;21002;-71
2023/04/14 07:39:41;;;;;;;3.60;1.33;;;10.60;76.60;;;;;;2299945;54;21716;-72
2023/04/14 07:42:07;;;;;;;4.10;1.50;;;10.80;76.60;;;;;;2312587;54;21507;-70
2023/04/14 07:44:34;;;;;;;3.55;1.70;;;10.90;76.80;;;;;;2548518;53;20961;-71
2023/04/14 07:47:00;;;;;;;6.20;1.87;;;11.10;77.10;;;;;;2297352;54;21066;-73
2023/04/14 07:49:26;;;;;;;7.18;1.83;;;11.30;77.40;;;;;;2310968;55;21618;-72
2023/04/14 07:51:53;;;;;;;5.87;2.10;;;11.40;77.50;;;;;;2552078;54;21069;-71
2023/04/14 07:54:23;;;;;;;4.53;2.00;;;11.60;77.70;;;;;;2311007;55;20959;-73
2023/04/14 07:56:49;;;;;;;6.32;2.20;;;11.80;77.80;;;;;;2312690;54;21011;-70
2023/04/14 07:59:16;;;;;;;4.85;2.05;;;12.00;77.80;;;;;;2551079;53;21817;-70
2023/04/14 08:01:43;;;;;;;4.78;1.85;;;12.20;77.90;;;;;;2546920;53;21057;-73
2023/04/14 08:04:09;;;;;;;4.85;2.17;;;12.40;77.80;;;;;;2309928;54;20963;-71
2023/04/14 08:06:36;;;;;;;3.97;1.90;;;12.60;77.80;;;;;;2551977;53;21003;-73
2023/04/14 08:09:02;;;;;;;5.20;1.98;;;12.80;77.70;;;;;;2552117;54;21447;-71
2023/04/14 08:11:28;;;;;;;6.45;1.60;;;12.90;77.30;;;;;;2551619;54;21436;-72
2023/04/14 08:13:56;;;;;;;5.32;1.58;;;13.10;76.80;;;;;;2552636;54;20996;-71
2023/04/14 08:16:24;;;;;;;5.37;1.80;;;13.20;76.50;;;;;;2549213;54;21016;-71
2023/04/14 08:18:50;;;;;;;5.50;1.70;;;13.30;76.20;;;;;;2546674;54;20976;-70
2023/04/14 08:21:16;;;;;;;4.00;1.55;;;13.40;76.10;;;;;;2308574;54;20931;-72
2023/04/14 08:23:43;;;;;;;3.70;1.50;;;13.50;75.80;;;;;;2552333;53;21023;-70
2023/04/14 08:26:10;;;;;;;4.55;1.70;;;13.60;75.60;;;;;;2312435;55;21618;-72
2023/04/14 08:28:36;;;;;;;4.65;1.60;;;13.80;75.70;;;;;;2552121;53;21035;-72
2023/04/14 08:31:04;;;;;;;5.75;1.42;;;13.80;75.70;;;;;;2551851;54;21547;-72
2023/04/14 08:33:34;;;;;;;5.28;1.30;;;13.90;75.50;;;;;;2551786;53;21030;-72
2023/04/14 08:36:00;;;;;;;3.12;1.15;;;14.00;75.10;;;;;;2312184;54;21051;-73
2023/04/14 08:38:27;;;;;;;4.90;1.40;;;14.00;75.10;;;;;;2551310;53;21535;-73
2023/04/14 08:40:56;;;;;;;6.22;1.23;;;14.10;75.10;;;;;;2552247;54;20975;-73
2023/04/14 08:43:23;;;;;;;6.35;1.95;;;14.20;74.70;;;;;;2548556;53;20943;-73
2023/04/14 08:45:53;;;;;;;5.35;1.75;;;14.30;75.00;;;;;;2549791;53;20942;-73
2023/04/14 08:48:19;;;;;;;4.85;1.48;;;14.40;75.00;;;;;;2549159;53;21010;-73
2023/04/14 08:50:55;;;;;;;3.90;1.10;;;14.50;75.00;;;;;;2311162;54;21873;-72
2023/04/14 08:53:22;;;;;;;4.68;1.33;;;14.50;74.50;;;;;;2544652;54;20999;-72
2023/04/14 08:55:51;;;;;;;2.90;1.12;;;14.70;75.40;;;;;;2310133;54;20987;-71
2023/04/14 08:58:18;;;;;;;5.80;1.33;;;14.70;75.20;;;;;;2308902;55;20982;-71
2023/04/14 09:00:46;;;;;;;4.35;0.98;;;14.90;75.80;;;;;;2549270;54;21007;-73
2023/04/14 09:03:13;;;;;;;4.28;1.10;;;15.00;75.60;;;;;;2550028;53;21023;-73
2023/04/14 09:05:40;;;;;;;2.97;1.08;;;15.10;75.60;;;;;;2549546;54;21027;-71
2023/04/14 09:08:07;;;;;;;2.40;0.88;;;15.20;75.90;;;;;;2549743;54;21527;-72
2023/04/14 09:10:35;;;;;;;3.42;1.00;;;15.30;75.80;;;;;;2549750;54;20971;-71
2023/04/14 09:13:06;;;;;;;4.15;1.20;;;15.40;75.40;;;;;;2546391;54;21055;-70
2023/04/14 09:15:32;;;;;;;3.72;1.05;;;15.50;74.70;;;;;;2551989;53;20975;-71
2023/04/14 09:17:58;;;;;;;5.87;1.35;;;15.60;75.70;;;;;;2312517;55;21042;-72
2023/04/14 09:20:25;;;;;;;4.28;1.40;;;15.60;75.30;;;;;;2548595;54;21012;-72
2023/04/14 09:22:52;;;;;;;3.53;0.90;;;15.80;75.50;;;;;;2548525;53;21086;-71
2023/04/14 09:25:19;;;;;;;5.68;1.20;;;15.90;75.30;;;;;;2551027;54;22040;-74
2023/04/14 09:27:49;;;;;;;3.72;1.10;;;16.00;74.80;;;;;;2310966;55;21039;-73
2023/04/14 09:30:16;;;;;;;4.00;1.10;;;16.00;74.60;;;;;;2551220;54;20931;-73
2023/04/14 09:32:49;;;;;;;4.53;1.30;;;16.20;74.70;;;;;;2311574;54;20939;-73
2023/04/14 09:35:15;;;;;;;3.15;0.80;;;16.20;74.40;;;;;;2310878;55;20951;-71
2023/04/14 09:37:45;;;;;;;2.37;0.73;;;16.30;74.90;;;;;;2310052;54;21859;-70
2023/04/14 09:40:33;;;;;;;5.35;1.10;;;16.40;74.60;;;;;;2311793;55;20946;-71
2023/04/14 09:42:59;;;;;;;2.85;0.90;;;16.60;72.60;;;;;;2551295;54;20931;-72
2023/04/14 09:45:44;;;;;;;5.82;1.50;;;16.60;74.70;;;;;;2311075;54;21082;-71
2023/04/14 09:48:13;;;;;;;4.80;1.15;;;16.80;73.50;;;;;;2312274;55;21792;-73
2023/04/14 09:57:28;;;;;;;5.68;1.50;;;16.80;74.40;;;;;;2518146;54;21055;-72
2023/04/14 09:59:54;;;;;;;3.33;0.88;;;17.10;71.70;;;;;;2551886;54;20959;-72
2023/04/14 10:02:21;;;;;;;3.22;0.82;;;17.10;73.90;;;;;;2313754;54;21515;-71
2023/04/14 10:05:06;;;;;;;3.40;0.90;;;17.20;73.70;;;;;;2546859;54;21144;-73
2023/04/14 10:07:36;;;;;;;4.10;0.82;;;17.20;73.10;;;;;;2311805;54;20925;-73
2023/04/14 10:10:09;;;;;;;2.72;0.88;;;17.20;73.30;;;;;;2312610;54;20987;-72
2023/04/14 10:12:35;;;;;;;4.03;1.00;;;17.30;72.40;;;;;;2307649;54;20938;-71
2023/04/14 10:15:03;;;;;;;4.25;0.90;;;17.30;72.60;;;;;;2311554;55;21066;-72
2023/04/14 10:17:30;;;;;;;4.18;1.00;;;17.40;72.50;;;;;;2546320;54;21089;-73
2023/04/14 10:19:57;;;;;;;2.70;0.70;;;17.40;72.40;;;;;;2310219;54;21031;-72
2023/04/14 10:22:26;;;;;;;2.90;0.80;;;17.40;72.30;;;;;;2310338;54;20979;-71
2023/04/14 10:24:52;;;;;;;4.35;1.12;;;17.40;72.00;;;;;;2551777;53;20960;-73
2023/04/14 10:27:19;;;;;;;3.08;0.85;;;17.50;71.80;;;;;;2550485;53;20962;-72
2023/04/14 10:29:46;;;;;;;1.67;0.52;;;17.50;71.50;;;;;;2551549;53;21519;-75
2023/04/14 10:32:13;;;;;;;3.15;0.80;;;17.50;71.40;;;;;;2550903;53;20935;-77
2023/04/14 10:34:46;;;;;;;3.03;0.80;;;17.50;71.40;;;;;;2312938;54;21047;-76
2023/04/14 10:37:15;;;;;;;3.05;0.80;;;17.50;71.10;;;;;;2311969;55;20959;-76
2023/04/14 10:39:42;;;;;;;4.75;0.90;;;17.50;70.90;;;;;;2312387;55;20942;-74
2023/04/14 10:42:08;;;;;;;2.22;0.70;;;17.50;70.80;;;;;;2549924;54;21110;-72
2023/04/14 10:44:39;;;;;;;5.70;1.02;;;17.60;70.70;;;;;;2547751;54;20989;-71
2023/04/14 10:47:06;;;;;;;3.60;0.90;;;17.60;70.50;;;;;;2311819;54;20987;-72
2023/04/14 10:49:39;;;;;;;2.83;0.62;;;17.60;71.00;;;;;;2311389;55;21963;-72
2023/04/14 10:52:47;;;;;;;2.37;0.70;;;17.70;70.50;;;;;;2313213;55;20967;-71
2023/04/14 10:55:13;;;;;;;3.72;0.90;;;17.70;67.90;;;;;;2551152;54;20944;-72
2023/04/14 10:57:41;;;;;;;3.37;0.80;;;17.70;71.00;;;;;;2547512;53;21064;-71
2023/04/14 11:00:22;;;;;;;2.47;0.70;;;17.70;71.10;;;;;;2308556;54;20929;-73
2023/04/14 11:03:09;;;;;;;1.75;0.55;;;17.90;70.00;;;;;;2312272;54;20978;-75
2023/04/14 11:05:35;;;;;;;2.70;0.80;;;17.90;70.60;;;;;;2546962;54;20998;-70
2023/04/14 11:08:49;;;;;;;4.97;1.02;;;18.00;72.20;;;;;;2312386;54;21082;-71
2023/04/14 11:11:15;;;;;;;3.15;0.73;;;18.10;68.40;;;;;;2549466;54;21011;-71
2023/04/14 11:13:42;;;;;;;3.50;0.70;;;18.10;71.30;;;;;;2311826;54;22027;-72
2023/04/14 11:16:09;;;;;;;2.95;0.90;;;18.20;71.70;;;;;;2310287;54;20978;-71
2023/04/14 11:18:41;;;;;;;2.97;0.70;;;18.30;72.00;;;;;;2548287;53;20971;-72
2023/04/14 11:21:12;;;;;;;2.42;0.68;;;18.40;71.60;;;;;;2311641;55;22108;-69
2023/04/14 11:23:38;;;;;;;2.65;0.70;;;18.40;72.20;;;;;;2312277;54;22032;-70
2023/04/14 11:26:05;;;;;;;3.97;0.90;;;18.50;72.40;;;;;;2548631;53;21869;-71
2023/04/14 11:28:36;;;;;;;3.15;0.73;;;18.60;72.20;;;;;;2312394;54;20996;-71
2023/04/14 11:31:07;;;;;;;3.53;0.65;;;18.70;70.80;;;;;;2308907;54;21067;-73
2023/04/14 11:33:36;;;;;;;2.08;0.70;;;18.70;70.70;;;;;;2549981;53;20986;-71
2023/04/14 11:36:05;;;;;;;4.97;0.70;;;18.80;70.40;;;;;;2550698;54;20927;-71
2023/04/14 11:38:34;;;;;;;2.55;0.52;;;18.80;70.40;;;;;;2549878;54;20963;-70
2023/04/14 11:41:00;;;;;;;2.87;1.00;;;18.90;70.10;;;;;;2315730;55;20999;-73
2023/04/14 11:43:32;;;;;;;7.78;1.15;;;18.90;70.40;;;;;;2546325;54;20967;-73
2023/04/14 11:46:02;;;;;;;3.00;0.77;;;18.90;68.40;;;;;;2316330;55;21001;-73
2023/04/14 11:48:29;;;;;;;2.12;0.60;;;18.90;69.30;;;;;;2548994;53;20999;-72
2023/04/14 11:51:02;;;;;;;1.83;0.57;;;18.90;68.80;;;;;;2313870;54;20984;-76
2023/04/14 11:53:28;;;;;;;2.65;0.60;;;18.90;67.60;;;;;;2551180;53;21023;-73
2023/04/14 11:55:56;;;;;;;5.53;0.70;;;18.90;68.10;;;;;;2548281;53;21011;-73
2023/04/14 11:58:23;;;;;;;3.12;0.70;;;18.90;68.20;;;;;;2313064;55;20963;-72
2023/04/14 12:00:53;;;;;;;3.05;0.68;;;18.90;68.60;;;;;;2552091;53;21036;-80
2023/04/14 12:03:24;;;;;;;3.00;0.85;;;18.90;68.60;;;;;;2309781;54;20919;-72
2023/04/14 12:06:01;;;;;;;2.42;0.70;;;18.90;69.40;;;;;;2553544;53;20919;-73
2023/04/14 12:08:28;;;;;;;2.40;0.60;;;18.90;68.80;;;;;;2313022;55;20998;-74
2023/04/14 12:10:56;;;;;;;2.03;0.70;;;19.00;69.30;;;;;;2547799;54;20975;-75
2023/04/14 12:13:23;;;;;;;3.72;0.70;;;19.00;68.70;;;;;;2551361;54;20995;-73
2023/04/14 12:15:50;;;;;;;3.53;0.70;;;19.00;67.90;;;;;;2312771;54;21495;-76
2023/04/14 12:18:16;;;;;;;1.42;0.50;;;19.00;67.50;;;;;;2313249;54;21000;-73
2023/04/14 12:20:53;;;;;;;4.18;0.57;;;18.90;67.60;;;;;;2549609;54;21757;-73
2023/04/14 12:23:22;;;;;;;1.85;0.57;;;18.90;66.80;;;;;;2314842;54;21012;-73
2023/04/14 12:25:48;;;;;;;2.92;0.70;;;18.90;67.30;;;;;;2546125;54;20957;-75
2023/04/14 12:28:40;;;;;;;2.05;0.62;;;19.00;67.50;;;;;;2533493;53;21497;-73
2023/04/14 12:31:06;;;;;;;3.12;0.73;;;18.90;65.10;;;;;;2310347;54;20958;-73
2023/04/14 12:33:33;;;;;;;2.92;0.77;;;18.90;67.70;;;;;;2551262;53;21010;-76
2023/04/14 12:36:10;;;;;;;2.00;0.60;;;18.90;67.80;;;;;;2315557;54;21388;-72
2023/04/14 12:38:37;;;;;;;2.92;0.80;;;18.90;66.70;;;;;;2306557;54;20949;-75
2023/04/14 12:41:05;;;;;;;2.75;0.60;;;18.80;67.50;;;;;;2552040;54;21003;-73
2023/04/14 12:43:33;;;;;;;2.50;0.77;;;18.80;67.30;;;;;;2312834;55;20994;-73
2023/04/14 12:45:59;;;;;;;3.15;0.50;;;18.80;67.20;;;;;;2315905;55;21321;-73
2023/04/14 12:48:43;;;;;;;2.08;0.57;;;18.80;67.40;;;;;;2556738;54;20944;-74
2023/04/14 12:51:15;;;;;;;2.87;0.65;;;18.80;65.60;;;;;;2552968;53;21503;-73
2023/04/14 12:53:46;;;;;;;2.67;0.52;;;18.80;67.80;;;;;;2554295;54;21011;-73
2023/04/14 12:56:21;;;;;;;2.85;0.70;;;18.90;67.50;;;;;;2314648;54;20979;-75
2023/04/14 12:58:47;;;;;;;3.25;0.70;;;18.90;67.10;;;;;;2554733;53;20974;-75
2023/04/14 13:01:15;;;;;;;2.30;0.77;;;18.90;68.40;;;;;;2552474;54;20955;-75
2023/04/14 13:03:54;;;;;;;3.17;0.80;;;18.90;68.00;;;;;;2552490;53;21368;-72
2023/04/14 13:06:21;;;;;;;2.70;0.60;;;19.00;66.30;;;;;;2313845;54;21064;-73
2023/04/14 13:08:57;;;;;;;2.62;0.50;;;19.00;67.90;;;;;;2552186;53;20931;-77
2023/04/14 13:11:26;;;;;;;3.40;0.65;;;19.10;67.00;;;;;;2313961;54;20927;-75
2023/04/14 13:13:52;;;;;;;2.42;0.70;;;19.10;67.60;;;;;;2553051;54;21007;-76
2023/04/14 13:16:19;;;;;;;1.90;0.50;;;19.20;68.40;;;;;;2550147;54;21514;-73